sensor_id;sensor_type;location;lat;lon;timestamp;P1;durP1;ratioP1;P2;durP2;ratioP2
11837;SDS011;5978;51.020;6.764;2023-07-30T00:01:35;6.27;;;3.53;;
11837;SDS011;5978;51.020;6.764;2023-07-30T00:04:01;10.30;;;3.43;;
11837;SDS011;5978;51.020;6.764;2023-07-30T00:06:26;7.50;;;3.57;;
11837;SDS011;5978;51.020;6.764;2023-07-30T00:08:52;4.50;;;3.30;;
11837;SDS011;5978;51.020;6.764;2023-07-30T00:11:18;7.90;;;3.43;;
11837;SDS011;5978;51.020;6.764;2023-07-30T00:13:43;7.27;;;4.20;;
11837;SDS011;5978;51.020;6.764;2023-07-30T00:16:09;5.73;;;3.40;;
11837;SDS011;5978;51.020;6.764;2023-07-30T00:18:34;3.63;;;3.27;;
11837;SDS011;5978;51.020;6.764;2023-07-30T00:21:00;7.80;;;3.80;;
11837;SDS011;5978;51.020;6.764;2023-07-30T00:23:25;8.23;;;3.90;;
11837;SDS011;5978;51.020;6.764;2023-07-30T00:25:51;8.00;;;3.47;;
11837;SDS011;5978;51.020;6.764;2023-07-30T00:28:16;8.60;;;3.70;;
11837;SDS011;5978;51.020;6.764;2023-07-30T00:30:42;13.57;;;4.03;;
11837;SDS011;5978;51.020;6.764;2023-07-30T00:33:08;7.37;;;3.50;;
11837;SDS011;5978;51.020;6.764;2023-07-30T00:35:34;6.60;;;3.53;;
11837;SDS011;5978;51.020;6.764;2023-07-30T00:37:59;5.73;;;3.50;;
11837;SDS011;5978;51.020;6.764;2023-07-30T00:40:25;11.50;;;3.83;;
11837;SDS011;5978;51.020;6.764;2023-07-30T00:42:50;3.80;;;3.37;;
11837;SDS011;5978;51.020;6.764;2023-07-30T00:45:16;4.50;;;3.30;;
11837;SDS011;5978;51.020;6.764;2023-07-30T00:47:42;6.43;;;3.83;;
11837;SDS011;5978;51.020;6.764;2023-07-30T00:50:08;14.77;;;4.10;;
11837;SDS011;5978;51.020;6.764;2023-07-30T00:52:37;9.20;;;3.20;;
11837;SDS011;5978;51.020;6.764;2023-07-30T00:55:04;11.17;;;3.37;;
11837;SDS011;5978;51.020;6.764;2023-07-30T00:57:31;5.50;;;3.30;;
11837;SDS011;5978;51.020;6.764;2023-07-30T00:59:57;8.60;;;3.33;;
11837;SDS011;5978;51.020;6.764;2023-07-30T01:02:23;6.63;;;3.50;;
11837;SDS011;5978;51.020;6.764;2023-07-30T01:04:49;3.50;;;3.20;;
11837;SDS011;5978;51.020;6.764;2023-07-30T01:07:15;6.03;;;3.57;;
11837;SDS011;5978;51.020;6.764;2023-07-30T01:09:40;7.83;;;3.60;;
11837;SDS011;5978;51.020;6.764;2023-07-30T01:12:07;6.93;;;3.70;;
11837;SDS011;5978;51.020;6.764;2023-07-30T01:14:33;5.80;;;3.90;;
11837;SDS011;5978;51.020;6.764;2023-07-30T01:17:00;5.70;;;3.00;;
11837;SDS011;5978;51.020;6.764;2023-07-30T01:19:26;5.10;;;3.50;;
11837;SDS011;5978;51.020;6.764;2023-07-30T01:21:51;5.87;;;3.57;;
11837;SDS011;5978;51.020;6.764;2023-07-30T01:24:17;4.27;;;3.30;;
11837;SDS011;5978;51.020;6.764;2023-07-30T01:26:43;4.70;;;3.60;;
11837;SDS011;5978;51.020;6.764;2023-07-30T01:29:12;7.30;;;4.60;;
11837;SDS011;5978;51.020;6.764;2023-07-30T01:31:47;6.57;;;3.93;;
11837;SDS011;5978;51.020;6.764;2023-07-30T01:34:19;6.10;;;3.30;;
11837;SDS011;5978;51.020;6.764;2023-07-30T01:36:45;7.57;;;3.70;;
11837;SDS011;5978;51.020;6.764;2023-07-30T01:39:13;14.20;;;4.63;;
11837;SDS011;5978;51.020;6.764;2023-07-30T01:41:40;6.67;;;3.53;;
11837;SDS011;5978;51.020;6.764;2023-07-30T01:44:06;8.33;;;3.40;;
11837;SDS011;5978;51.020;6.764;2023-07-30T01:46:31;7.10;;;3.50;;
11837;SDS011;5978;51.020;6.764;2023-07-30T01:48:57;8.30;;;3.20;;
11837;SDS011;5978;51.020;6.764;2023-07-30T01:51:22;3.77;;;3.40;;
11837;SDS011;5978;51.020;6.764;2023-07-30T01:53:48;8.90;;;4.50;;
11837;SDS011;5978;51.020;6.764;2023-07-30T01:56:13;4.80;;;3.10;;
11837;SDS011;5978;51.020;6.764;2023-07-30T01:58:39;3.93;;;3.20;;
11837;SDS011;5978;51.020;6.764;2023-07-30T02:01:04;7.20;;;3.37;;
11837;SDS011;5978;51.020;6.764;2023-07-30T02:03:30;10.37;;;4.60;;
11837;SDS011;5978;51.020;6.764;2023-07-30T02:05:55;8.90;;;4.23;;
11837;SDS011;5978;51.020;6.764;2023-07-30T02:08:21;10.90;;;4.00;;
11837;SDS011;5978;51.020;6.764;2023-07-30T02:10:59;6.20;;;3.60;;
11837;SDS011;5978;51.020;6.764;2023-07-30T02:13:25;7.90;;;3.60;;
11837;SDS011;5978;51.020;6.764;2023-07-30T02:15:51;10.40;;;4.13;;
11837;SDS011;5978;51.020;6.764;2023-07-30T02:18:16;5.93;;;3.50;;
11837;SDS011;5978;51.020;6.764;2023-07-30T02:20:45;7.50;;;3.67;;
11837;SDS011;5978;51.020;6.764;2023-07-30T02:23:14;4.23;;;3.70;;
11837;SDS011;5978;51.020;6.764;2023-07-30T02:25:42;9.93;;;5.67;;
11837;SDS011;5978;51.020;6.764;2023-07-30T02:28:08;6.50;;;3.70;;
11837;SDS011;5978;51.020;6.764;2023-07-30T02:30:34;6.97;;;3.47;;
11837;SDS011;5978;51.020;6.764;2023-07-30T02:33:00;4.63;;;2.90;;
11837;SDS011;5978;51.020;6.764;2023-07-30T02:38:29;5.00;;;3.67;;
11837;SDS011;5978;51.020;6.764;2023-07-30T02:40:54;4.67;;;3.23;;
11837;SDS011;5978;51.020;6.764;2023-07-30T02:43:20;4.33;;;3.77;;
11837;SDS011;5978;51.020;6.764;2023-07-30T02:45:48;6.70;;;3.80;;
11837;SDS011;5978;51.020;6.764;2023-07-30T02:48:14;7.83;;;3.17;;
11837;SDS011;5978;51.020;6.764;2023-07-30T02:50:40;7.90;;;3.47;;
11837;SDS011;5978;51.020;6.764;2023-07-30T02:53:05;7.73;;;3.57;;
11837;SDS011;5978;51.020;6.764;2023-07-30T02:55:31;7.87;;;3.40;;
11837;SDS011;5978;51.020;6.764;2023-07-30T02:57:56;11.50;;;3.87;;
11837;SDS011;5978;51.020;6.764;2023-07-30T03:00:22;5.53;;;3.83;;
11837;SDS011;5978;51.020;6.764;2023-07-30T03:02:47;4.47;;;3.40;;
11837;SDS011;5978;51.020;6.764;2023-07-30T03:05:13;4.30;;;3.10;;
11837;SDS011;5978;51.020;6.764;2023-07-30T03:07:39;9.60;;;3.87;;
11837;SDS011;5978;51.020;6.764;2023-07-30T03:10:04;6.50;;;4.33;;
11837;SDS011;5978;51.020;6.764;2023-07-30T03:12:30;3.37;;;3.07;;
11837;SDS011;5978;51.020;6.764;2023-07-30T03:14:56;8.10;;;3.33;;
11837;SDS011;5978;51.020;6.764;2023-07-30T03:17:21;9.23;;;3.67;;
11837;SDS011;5978;51.020;6.764;2023-07-30T03:19:47;5.70;;;4.60;;
11837;SDS011;5978;51.020;6.764;2023-07-30T03:22:12;9.70;;;5.00;;
11837;SDS011;5978;51.020;6.764;2023-07-30T03:24:38;8.03;;;3.33;;
11837;SDS011;5978;51.020;6.764;2023-07-30T03:27:03;4.73;;;3.40;;
11837;SDS011;5978;51.020;6.764;2023-07-30T03:29:29;6.57;;;3.40;;
11837;SDS011;5978;51.020;6.764;2023-07-30T03:31:55;4.43;;;2.93;;
11837;SDS011;5978;51.020;6.764;2023-07-30T03:34:20;3.93;;;2.80;;
11837;SDS011;5978;51.020;6.764;2023-07-30T03:36:46;5.73;;;2.97;;
11837;SDS011;5978;51.020;6.764;2023-07-30T03:39:11;3.17;;;2.17;;
11837;SDS011;5978;51.020;6.764;2023-07-30T03:41:37;4.13;;;3.70;;
11837;SDS011;5978;51.020;6.764;2023-07-30T03:44:02;7.73;;;2.80;;
11837;SDS011;5978;51.020;6.764;2023-07-30T03:46:28;10.20;;;3.53;;
11837;SDS011;5978;51.020;6.764;2023-07-30T03:48:54;9.80;;;3.13;;
11837;SDS011;5978;51.020;6.764;2023-07-30T03:51:19;4.30;;;2.40;;
11837;SDS011;5978;51.020;6.764;2023-07-30T03:53:45;5.10;;;2.43;;
11837;SDS011;5978;51.020;6.764;2023-07-30T03:56:10;4.07;;;2.90;;
11837;SDS011;5978;51.020;6.764;2023-07-30T03:58:36;5.83;;;2.33;;
11837;SDS011;5978;51.020;6.764;2023-07-30T04:01:01;4.50;;;2.67;;
11837;SDS011;5978;51.020;6.764;2023-07-30T04:03:27;9.73;;;2.60;;
11837;SDS011;5978;51.020;6.764;2023-07-30T04:05:52;6.30;;;2.00;;
11837;SDS011;5978;51.020;6.764;2023-07-30T04:08:18;5.57;;;2.90;;
11837;SDS011;5978;51.020;6.764;2023-07-30T04:10:44;5.63;;;2.30;;
11837;SDS011;5978;51.020;6.764;2023-07-30T04:13:09;9.90;;;2.80;;
11837;SDS011;5978;51.020;6.764;2023-07-30T04:15:35;11.00;;;2.60;;
11837;SDS011;5978;51.020;6.764;2023-07-30T04:18:00;6.00;;;2.30;;
11837;SDS011;5978;51.020;6.764;2023-07-30T04:20:26;8.70;;;2.70;;
11837;SDS011;5978;51.020;6.764;2023-07-30T04:22:51;7.30;;;2.90;;
11837;SDS011;5978;51.020;6.764;2023-07-30T04:25:17;7.10;;;2.23;;
11837;SDS011;5978;51.020;6.764;2023-07-30T04:27:43;6.33;;;2.30;;
11837;SDS011;5978;51.020;6.764;2023-07-30T04:30:09;6.37;;;2.10;;
11837;SDS011;5978;51.020;6.764;2023-07-30T04:32:34;4.30;;;2.30;;
11837;SDS011;5978;51.020;6.764;2023-07-30T04:35:01;5.07;;;2.03;;
11837;SDS011;5978;51.020;6.764;2023-07-30T04:37:27;5.23;;;2.13;;
11837;SDS011;5978;51.020;6.764;2023-07-30T04:39:53;6.20;;;2.40;;
11837;SDS011;5978;51.020;6.764;2023-07-30T04:42:19;5.77;;;2.50;;
11837;SDS011;5978;51.020;6.764;2023-07-30T04:44:44;3.57;;;2.40;;
11837;SDS011;5978;51.020;6.764;2023-07-30T04:47:10;4.67;;;2.10;;
11837;SDS011;5978;51.020;6.764;2023-07-30T04:49:35;3.20;;;2.70;;
11837;SDS011;5978;51.020;6.764;2023-07-30T04:52:02;4.83;;;2.20;;
11837;SDS011;5978;51.020;6.764;2023-07-30T04:54:28;4.03;;;2.60;;
11837;SDS011;5978;51.020;6.764;2023-07-30T04:56:54;6.53;;;3.40;;
11837;SDS011;5978;51.020;6.764;2023-07-30T04:59:19;4.97;;;2.57;;
11837;SDS011;5978;51.020;6.764;2023-07-30T05:01:45;5.50;;;2.80;;
11837;SDS011;5978;51.020;6.764;2023-07-30T05:04:10;5.70;;;2.73;;
11837;SDS011;5978;51.020;6.764;2023-07-30T05:06:36;5.57;;;2.53;;
11837;SDS011;5978;51.020;6.764;2023-07-30T05:09:01;7.70;;;3.67;;
11837;SDS011;5978;51.020;6.764;2023-07-30T05:11:27;6.93;;;3.30;;
11837;SDS011;5978;51.020;6.764;2023-07-30T05:13:52;4.73;;;2.27;;
11837;SDS011;5978;51.020;6.764;2023-07-30T05:16:18;4.40;;;2.17;;
11837;SDS011;5978;51.020;6.764;2023-07-30T05:18:44;4.13;;;2.20;;
11837;SDS011;5978;51.020;6.764;2023-07-30T05:21:10;5.03;;;2.33;;
11837;SDS011;5978;51.020;6.764;2023-07-30T05:26:32;7.30;;;2.50;;
11837;SDS011;5978;51.020;6.764;2023-07-30T05:28:57;3.80;;;2.47;;
11837;SDS011;5978;51.020;6.764;2023-07-30T05:31:23;4.10;;;2.40;;
11837;SDS011;5978;51.020;6.764;2023-07-30T05:33:48;3.30;;;1.80;;
11837;SDS011;5978;51.020;6.764;2023-07-30T05:36:14;3.50;;;1.70;;
11837;SDS011;5978;51.020;6.764;2023-07-30T05:38:39;4.13;;;2.30;;
11837;SDS011;5978;51.020;6.764;2023-07-30T05:41:05;5.00;;;2.40;;
11837;SDS011;5978;51.020;6.764;2023-07-30T05:43:30;10.40;;;2.40;;
11837;SDS011;5978;51.020;6.764;2023-07-30T05:45:56;4.83;;;2.07;;
11837;SDS011;5978;51.020;6.764;2023-07-30T05:48:21;3.80;;;1.80;;
11837;SDS011;5978;51.020;6.764;2023-07-30T05:50:47;10.50;;;2.10;;
11837;SDS011;5978;51.020;6.764;2023-07-30T05:53:12;5.03;;;3.07;;
11837;SDS011;5978;51.020;6.764;2023-07-30T05:55:38;5.10;;;2.60;;
11837;SDS011;5978;51.020;6.764;2023-07-30T05:58:04;4.97;;;2.50;;
11837;SDS011;5978;51.020;6.764;2023-07-30T06:00:29;3.50;;;2.73;;
11837;SDS011;5978;51.020;6.764;2023-07-30T06:02:55;3.60;;;2.87;;
11837;SDS011;5978;51.020;6.764;2023-07-30T06:05:20;4.63;;;2.50;;
11837;SDS011;5978;51.020;6.764;2023-07-30T06:07:46;4.03;;;2.13;;
11837;SDS011;5978;51.020;6.764;2023-07-30T06:10:11;6.80;;;2.40;;
11837;SDS011;5978;51.020;6.764;2023-07-30T06:12:37;3.30;;;1.73;;
11837;SDS011;5978;51.020;6.764;2023-07-30T06:15:03;5.03;;;1.87;;
11837;SDS011;5978;51.020;6.764;2023-07-30T06:17:30;3.70;;;2.27;;
11837;SDS011;5978;51.020;6.764;2023-07-30T06:19:55;8.27;;;2.70;;
11837;SDS011;5978;51.020;6.764;2023-07-30T06:22:21;5.53;;;2.20;;
11837;SDS011;5978;51.020;6.764;2023-07-30T06:24:47;5.80;;;2.40;;
11837;SDS011;5978;51.020;6.764;2023-07-30T06:27:12;4.10;;;2.07;;
11837;SDS011;5978;51.020;6.764;2023-07-30T06:29:41;5.20;;;2.20;;
11837;SDS011;5978;51.020;6.764;2023-07-30T06:32:06;2.83;;;1.47;;
11837;SDS011;5978;51.020;6.764;2023-07-30T06:34:32;7.70;;;2.23;;
11837;SDS011;5978;51.020;6.764;2023-07-30T06:36:58;4.70;;;2.07;;
11837;SDS011;5978;51.020;6.764;2023-07-30T06:39:23;4.47;;;1.70;;
11837;SDS011;5978;51.020;6.764;2023-07-30T06:41:49;3.90;;;1.53;;
11837;SDS011;5978;51.020;6.764;2023-07-30T06:44:14;3.73;;;2.40;;
11837;SDS011;5978;51.020;6.764;2023-07-30T06:46:41;3.50;;;1.70;;
11837;SDS011;5978;51.020;6.764;2023-07-30T06:49:06;7.10;;;2.77;;
11837;SDS011;5978;51.020;6.764;2023-07-30T06:51:32;6.40;;;2.63;;
11837;SDS011;5978;51.020;6.764;2023-07-30T06:53:57;6.53;;;2.30;;
11837;SDS011;5978;51.020;6.764;2023-07-30T06:56:23;8.40;;;2.90;;
11837;SDS011;5978;51.020;6.764;2023-07-30T06:58:48;10.10;;;3.07;;
11837;SDS011;5978;51.020;6.764;2023-07-30T07:01:14;6.83;;;2.70;;
11837;SDS011;5978;51.020;6.764;2023-07-30T07:03:39;4.77;;;2.30;;
11837;SDS011;5978;51.020;6.764;2023-07-30T07:06:05;6.70;;;2.50;;
11837;SDS011;5978;51.020;6.764;2023-07-30T07:08:30;4.17;;;2.90;;
11837;SDS011;5978;51.020;6.764;2023-07-30T07:10:56;6.80;;;2.80;;
11837;SDS011;5978;51.020;6.764;2023-07-30T07:13:21;6.93;;;2.17;;
11837;SDS011;5978;51.020;6.764;2023-07-30T07:15:47;4.97;;;2.50;;
11837;SDS011;5978;51.020;6.764;2023-07-30T07:18:13;4.80;;;2.47;;
11837;SDS011;5978;51.020;6.764;2023-07-30T07:20:38;3.13;;;1.97;;
11837;SDS011;5978;51.020;6.764;2023-07-30T07:23:04;7.43;;;2.40;;
11837;SDS011;5978;51.020;6.764;2023-07-30T07:25:29;6.90;;;2.30;;
11837;SDS011;5978;51.020;6.764;2023-07-30T07:27:55;5.40;;;2.90;;
11837;SDS011;5978;51.020;6.764;2023-07-30T07:30:21;7.83;;;2.80;;
11837;SDS011;5978;51.020;6.764;2023-07-30T07:32:46;9.87;;;2.93;;
11837;SDS011;5978;51.020;6.764;2023-07-30T07:35:15;4.30;;;2.10;;
11837;SDS011;5978;51.020;6.764;2023-07-30T07:37:41;10.53;;;2.83;;
11837;SDS011;5978;51.020;6.764;2023-07-30T07:40:06;6.63;;;2.70;;
11837;SDS011;5978;51.020;6.764;2023-07-30T07:42:34;9.50;;;2.80;;
11837;SDS011;5978;51.020;6.764;2023-07-30T07:45:00;6.60;;;2.60;;
11837;SDS011;5978;51.020;6.764;2023-07-30T07:47:25;7.20;;;2.80;;
11837;SDS011;5978;51.020;6.764;2023-07-30T07:49:51;7.47;;;2.90;;
11837;SDS011;5978;51.020;6.764;2023-07-30T07:52:16;11.73;;;2.90;;
11837;SDS011;5978;51.020;6.764;2023-07-30T07:54:42;4.37;;;2.60;;
11837;SDS011;5978;51.020;6.764;2023-07-30T07:57:08;7.90;;;2.80;;
11837;SDS011;5978;51.020;6.764;2023-07-30T07:59:33;4.67;;;2.67;;
11837;SDS011;5978;51.020;6.764;2023-07-30T08:01:59;6.33;;;3.00;;
11837;SDS011;5978;51.020;6.764;2023-07-30T08:04:25;7.13;;;2.93;;
11837;SDS011;5978;51.020;6.764;2023-07-30T08:06:50;7.10;;;3.73;;
11837;SDS011;5978;51.020;6.764;2023-07-30T08:09:16;15.37;;;3.10;;
11837;SDS011;5978;51.020;6.764;2023-07-30T08:11:41;14.57;;;3.50;;
11837;SDS011;5978;51.020;6.764;2023-07-30T08:14:07;10.73;;;4.63;;
11837;SDS011;5978;51.020;6.764;2023-07-30T08:16:32;10.13;;;3.40;;
11837;SDS011;5978;51.020;6.764;2023-07-30T08:18:58;5.13;;;3.33;;
11837;SDS011;5978;51.020;6.764;2023-07-30T08:21:24;6.83;;;3.80;;
11837;SDS011;5978;51.020;6.764;2023-07-30T08:23:50;13.23;;;3.97;;
11837;SDS011;5978;51.020;6.764;2023-07-30T08:26:15;12.50;;;4.03;;
11837;SDS011;5978;51.020;6.764;2023-07-30T08:28:41;6.83;;;5.00;;
11837;SDS011;5978;51.020;6.764;2023-07-30T08:31:06;16.13;;;4.43;;
11837;SDS011;5978;51.020;6.764;2023-07-30T08:33:32;7.10;;;3.50;;
11837;SDS011;5978;51.020;6.764;2023-07-30T08:35:58;7.93;;;4.03;;
11837;SDS011;5978;51.020;6.764;2023-07-30T08:38:24;8.87;;;4.27;;
11837;SDS011;5978;51.020;6.764;2023-07-30T08:40:50;11.73;;;4.80;;
11837;SDS011;5978;51.020;6.764;2023-07-30T08:43:17;11.80;;;4.20;;
11837;SDS011;5978;51.020;6.764;2023-07-30T08:45:43;10.27;;;4.10;;
11837;SDS011;5978;51.020;6.764;2023-07-30T08:48:09;11.13;;;4.27;;
11837;SDS011;5978;51.020;6.764;2023-07-30T08:50:34;11.13;;;4.20;;
11837;SDS011;5978;51.020;6.764;2023-07-30T08:53:02;7.83;;;3.70;;
11837;SDS011;5978;51.020;6.764;2023-07-30T08:55:28;5.37;;;3.50;;
11837;SDS011;5978;51.020;6.764;2023-07-30T08:57:58;8.93;;;4.20;;
11837;SDS011;5978;51.020;6.764;2023-07-30T09:00:30;12.57;;;4.40;;
11837;SDS011;5978;51.020;6.764;2023-07-30T09:03:02;15.90;;;3.60;;
11837;SDS011;5978;51.020;6.764;2023-07-30T09:05:29;8.57;;;3.57;;
11837;SDS011;5978;51.020;6.764;2023-07-30T09:07:56;17.10;;;3.90;;
11837;SDS011;5978;51.020;6.764;2023-07-30T09:10:22;8.17;;;2.73;;
11837;SDS011;5978;51.020;6.764;2023-07-30T09:12:54;12.83;;;3.90;;
11837;SDS011;5978;51.020;6.764;2023-07-30T09:15:29;7.23;;;3.50;;
11837;SDS011;5978;51.020;6.764;2023-07-30T09:17:59;6.00;;;3.03;;
11837;SDS011;5978;51.020;6.764;2023-07-30T09:20:36;10.00;;;4.60;;
11837;SDS011;5978;51.020;6.764;2023-07-30T09:23:04;7.80;;;3.57;;
11837;SDS011;5978;51.020;6.764;2023-07-30T09:25:30;8.13;;;3.23;;
11837;SDS011;5978;51.020;6.764;2023-07-30T09:27:55;9.57;;;3.10;;
11837;SDS011;5978;51.020;6.764;2023-07-30T09:30:25;7.53;;;3.50;;
11837;SDS011;5978;51.020;6.764;2023-07-30T09:32:52;7.77;;;2.60;;
11837;SDS011;5978;51.020;6.764;2023-07-30T09:35:19;4.90;;;3.47;;
11837;SDS011;5978;51.020;6.764;2023-07-30T09:37:45;8.83;;;3.90;;
11837;SDS011;5978;51.020;6.764;2023-07-30T09:40:11;9.20;;;3.63;;
11837;SDS011;5978;51.020;6.764;2023-07-30T09:42:41;12.60;;;3.57;;
11837;SDS011;5978;51.020;6.764;2023-07-30T09:45:21;10.90;;;3.80;;
11837;SDS011;5978;51.020;6.764;2023-07-30T09:47:49;4.73;;;3.07;;
11837;SDS011;5978;51.020;6.764;2023-07-30T09:50:16;7.17;;;3.10;;
11837;SDS011;5978;51.020;6.764;2023-07-30T09:52:42;7.73;;;3.00;;
11837;SDS011;5978;51.020;6.764;2023-07-30T09:55:10;4.53;;;2.50;;
11837;SDS011;5978;51.020;6.764;2023-07-30T09:57:37;3.93;;;2.23;;
11837;SDS011;5978;51.020;6.764;2023-07-30T10:00:04;8.00;;;3.47;;
11837;SDS011;5978;51.020;6.764;2023-07-30T10:02:31;7.10;;;2.80;;
11837;SDS011;5978;51.020;6.764;2023-07-30T10:05:02;11.20;;;2.97;;
11837;SDS011;5978;51.020;6.764;2023-07-30T10:07:32;9.33;;;2.73;;
11837;SDS011;5978;51.020;6.764;2023-07-30T10:10:00;5.80;;;2.17;;
11837;SDS011;5978;51.020;6.764;2023-07-30T10:12:29;6.93;;;2.90;;
11837;SDS011;5978;51.020;6.764;2023-07-30T10:14:57;5.00;;;2.20;;
11837;SDS011;5978;51.020;6.764;2023-07-30T10:17:22;9.63;;;2.27;;
11837;SDS011;5978;51.020;6.764;2023-07-30T10:19:49;6.77;;;2.70;;
11837;SDS011;5978;51.020;6.764;2023-07-30T10:24:57;5.50;;;2.33;;
11837;SDS011;5978;51.020;6.764;2023-07-30T10:27:23;5.03;;;2.40;;
11837;SDS011;5978;51.020;6.764;2023-07-30T10:30:07;7.33;;;2.83;;
11837;SDS011;5978;51.020;6.764;2023-07-30T10:35:38;9.83;;;2.80;;
11837;SDS011;5978;51.020;6.764;2023-07-30T10:43:28;4.03;;;2.77;;
11837;SDS011;5978;51.020;6.764;2023-07-30T10:45:55;6.10;;;2.27;;
11837;SDS011;5978;51.020;6.764;2023-07-30T10:48:29;3.97;;;1.77;;
11837;SDS011;5978;51.020;6.764;2023-07-30T10:50:57;5.27;;;1.70;;
11837;SDS011;5978;51.020;6.764;2023-07-30T10:53:22;7.00;;;2.63;;
11837;SDS011;5978;51.020;6.764;2023-07-30T10:55:48;4.00;;;2.20;;
11837;SDS011;5978;51.020;6.764;2023-07-30T10:58:14;2.60;;;1.87;;
11837;SDS011;5978;51.020;6.764;2023-07-30T11:00:41;6.00;;;1.90;;
11837;SDS011;5978;51.020;6.764;2023-07-30T11:03:07;10.50;;;2.13;;
11837;SDS011;5978;51.020;6.764;2023-07-30T11:05:32;4.07;;;1.87;;
11837;SDS011;5978;51.020;6.764;2023-07-30T11:07:58;4.00;;;1.87;;
11837;SDS011;5978;51.020;6.764;2023-07-30T11:10:24;4.67;;;2.10;;
11837;SDS011;5978;51.020;6.764;2023-07-30T11:12:49;4.60;;;1.80;;
11837;SDS011;5978;51.020;6.764;2023-07-30T11:15:15;7.83;;;2.40;;
11837;SDS011;5978;51.020;6.764;2023-07-30T11:17:42;4.63;;;2.10;;
11837;SDS011;5978;51.020;6.764;2023-07-30T11:20:21;5.67;;;1.83;;
11837;SDS011;5978;51.020;6.764;2023-07-30T11:22:48;6.57;;;4.10;;
11837;SDS011;5978;51.020;6.764;2023-07-30T11:25:16;8.27;;;4.27;;
11837;SDS011;5978;51.020;6.764;2023-07-30T11:27:46;4.80;;;1.40;;
11837;SDS011;5978;51.020;6.764;2023-07-30T11:30:12;4.33;;;1.83;;
11837;SDS011;5978;51.020;6.764;2023-07-30T11:32:37;8.13;;;2.73;;
11837;SDS011;5978;51.020;6.764;2023-07-30T11:35:04;6.10;;;1.80;;
11837;SDS011;5978;51.020;6.764;2023-07-30T11:37:31;3.33;;;1.50;;
11837;SDS011;5978;51.020;6.764;2023-07-30T11:39:57;4.30;;;1.87;;
11837;SDS011;5978;51.020;6.764;2023-07-30T11:42:23;4.70;;;1.93;;
11837;SDS011;5978;51.020;6.764;2023-07-30T11:44:49;6.63;;;2.43;;
11837;SDS011;5978;51.020;6.764;2023-07-30T11:47:22;7.30;;;2.20;;
11837;SDS011;5978;51.020;6.764;2023-07-30T11:49:55;2.70;;;1.80;;
11837;SDS011;5978;51.020;6.764;2023-07-30T11:52:21;3.77;;;2.00;;
11837;SDS011;5978;51.020;6.764;2023-07-30T11:54:47;8.20;;;2.13;;
11837;SDS011;5978;51.020;6.764;2023-07-30T11:57:13;5.60;;;1.63;;
11837;SDS011;5978;51.020;6.764;2023-07-30T11:59:38;4.63;;;3.00;;
11837;SDS011;5978;51.020;6.764;2023-07-30T12:02:07;6.07;;;2.10;;
11837;SDS011;5978;51.020;6.764;2023-07-30T12:04:42;3.53;;;2.03;;
11837;SDS011;5978;51.020;6.764;2023-07-30T12:07:09;7.60;;;2.47;;
11837;SDS011;5978;51.020;6.764;2023-07-30T12:09:35;4.23;;;1.60;;
11837;SDS011;5978;51.020;6.764;2023-07-30T12:12:01;2.37;;;1.43;;
11837;SDS011;5978;51.020;6.764;2023-07-30T12:14:28;5.77;;;1.50;;
11837;SDS011;5978;51.020;6.764;2023-07-30T12:17:08;3.23;;;2.00;;
11837;SDS011;5978;51.020;6.764;2023-07-30T12:19:34;5.87;;;1.73;;
11837;SDS011;5978;51.020;6.764;2023-07-30T12:22:01;7.50;;;1.93;;
11837;SDS011;5978;51.020;6.764;2023-07-30T12:24:27;3.97;;;1.60;;
11837;SDS011;5978;51.020;6.764;2023-07-30T12:26:52;3.27;;;1.97;;
11837;SDS011;5978;51.020;6.764;2023-07-30T12:29:18;5.73;;;2.80;;
11837;SDS011;5978;51.020;6.764;2023-07-30T12:31:44;5.10;;;1.80;;
11837;SDS011;5978;51.020;6.764;2023-07-30T12:34:10;6.83;;;1.70;;
11837;SDS011;5978;51.020;6.764;2023-07-30T12:36:36;5.77;;;1.77;;
11837;SDS011;5978;51.020;6.764;2023-07-30T12:39:02;4.17;;;1.93;;
11837;SDS011;5978;51.020;6.764;2023-07-30T12:41:28;7.47;;;2.00;;
11837;SDS011;5978;51.020;6.764;2023-07-30T12:43:54;6.10;;;2.00;;
11837;SDS011;5978;51.020;6.764;2023-07-30T12:46:24;3.07;;;1.60;;
11837;SDS011;5978;51.020;6.764;2023-07-30T12:48:54;4.20;;;2.27;;
11837;SDS011;5978;51.020;6.764;2023-07-30T12:51:21;5.67;;;2.20;;
11837;SDS011;5978;51.020;6.764;2023-07-30T12:53:47;5.10;;;1.73;;
11837;SDS011;5978;51.020;6.764;2023-07-30T12:56:13;6.23;;;2.20;;
11837;SDS011;5978;51.020;6.764;2023-07-30T12:58:40;5.40;;;1.53;;
11837;SDS011;5978;51.020;6.764;2023-07-30T13:01:06;8.90;;;2.50;;
11837;SDS011;5978;51.020;6.764;2023-07-30T13:03:32;5.07;;;1.60;;
11837;SDS011;5978;51.020;6.764;2023-07-30T13:05:57;3.00;;;1.93;;
11837;SDS011;5978;51.020;6.764;2023-07-30T13:08:23;5.60;;;2.43;;
11837;SDS011;5978;51.020;6.764;2023-07-30T13:10:49;4.43;;;2.20;;
11837;SDS011;5978;51.020;6.764;2023-07-30T13:13:14;7.70;;;1.90;;
11837;SDS011;5978;51.020;6.764;2023-07-30T13:15:40;5.40;;;2.20;;
11837;SDS011;5978;51.020;6.764;2023-07-30T13:18:06;5.63;;;2.13;;
11837;SDS011;5978;51.020;6.764;2023-07-30T13:20:31;4.73;;;2.47;;
11837;SDS011;5978;51.020;6.764;2023-07-30T13:22:57;7.23;;;2.43;;
11837;SDS011;5978;51.020;6.764;2023-07-30T13:25:23;7.87;;;2.00;;
11837;SDS011;5978;51.020;6.764;2023-07-30T13:27:49;6.30;;;2.17;;
11837;SDS011;5978;51.020;6.764;2023-07-30T13:30:15;4.83;;;2.67;;
11837;SDS011;5978;51.020;6.764;2023-07-30T13:32:40;4.63;;;1.83;;
11837;SDS011;5978;51.020;6.764;2023-07-30T13:35:06;4.47;;;2.37;;
11837;SDS011;5978;51.020;6.764;2023-07-30T13:37:32;6.13;;;2.20;;
11837;SDS011;5978;51.020;6.764;2023-07-30T13:39:57;5.77;;;1.63;;
11837;SDS011;5978;51.020;6.764;2023-07-30T13:42:23;8.50;;;2.33;;
11837;SDS011;5978;51.020;6.764;2023-07-30T13:44:48;5.47;;;2.10;;
11837;SDS011;5978;51.020;6.764;2023-07-30T13:47:14;2.77;;;1.70;;
11837;SDS011;5978;51.020;6.764;2023-07-30T13:49:39;5.53;;;1.93;;
11837;SDS011;5978;51.020;6.764;2023-07-30T13:52:05;5.33;;;2.87;;
11837;SDS011;5978;51.020;6.764;2023-07-30T13:54:31;3.30;;;1.73;;
11837;SDS011;5978;51.020;6.764;2023-07-30T13:56:56;3.93;;;1.80;;
11837;SDS011;5978;51.020;6.764;2023-07-30T13:59:22;5.53;;;1.80;;
11837;SDS011;5978;51.020;6.764;2023-07-30T14:01:47;4.00;;;1.50;;
11837;SDS011;5978;51.020;6.764;2023-07-30T14:04:13;5.33;;;2.10;;
11837;SDS011;5978;51.020;6.764;2023-07-30T14:06:39;3.33;;;1.87;;
11837;SDS011;5978;51.020;6.764;2023-07-30T14:09:04;5.80;;;2.27;;
11837;SDS011;5978;51.020;6.764;2023-07-30T14:11:30;2.30;;;1.53;;
11837;SDS011;5978;51.020;6.764;2023-07-30T14:13:55;4.83;;;1.80;;
11837;SDS011;5978;51.020;6.764;2023-07-30T14:16:23;5.50;;;2.00;;
11837;SDS011;5978;51.020;6.764;2023-07-30T14:18:48;6.53;;;2.00;;
11837;SDS011;5978;51.020;6.764;2023-07-30T14:21:14;3.53;;;1.97;;
11837;SDS011;5978;51.020;6.764;2023-07-30T14:23:40;4.67;;;1.70;;
11837;SDS011;5978;51.020;6.764;2023-07-30T14:26:05;2.37;;;1.63;;
11837;SDS011;5978;51.020;6.764;2023-07-30T14:28:31;3.43;;;1.77;;
11837;SDS011;5978;51.020;6.764;2023-07-30T14:30:57;3.27;;;1.53;;
11837;SDS011;5978;51.020;6.764;2023-07-30T14:33:23;5.00;;;1.83;;
11837;SDS011;5978;51.020;6.764;2023-07-30T14:35:48;4.73;;;1.20;;
11837;SDS011;5978;51.020;6.764;2023-07-30T14:38:14;4.13;;;1.47;;
11837;SDS011;5978;51.020;6.764;2023-07-30T14:40:41;5.23;;;2.00;;
11837;SDS011;5978;51.020;6.764;2023-07-30T14:43:07;5.97;;;2.00;;
11837;SDS011;5978;51.020;6.764;2023-07-30T14:45:33;2.90;;;1.67;;
11837;SDS011;5978;51.020;6.764;2023-07-30T14:47:58;2.50;;;1.73;;
11837;SDS011;5978;51.020;6.764;2023-07-30T14:50:24;4.40;;;1.43;;
11837;SDS011;5978;51.020;6.764;2023-07-30T14:52:50;5.17;;;1.80;;
11837;SDS011;5978;51.020;6.764;2023-07-30T14:55:15;3.53;;;1.70;;
11837;SDS011;5978;51.020;6.764;2023-07-30T14:57:41;3.00;;;1.80;;
11837;SDS011;5978;51.020;6.764;2023-07-30T15:00:07;4.67;;;1.57;;
11837;SDS011;5978;51.020;6.764;2023-07-30T15:02:36;2.67;;;1.87;;
11837;SDS011;5978;51.020;6.764;2023-07-30T15:05:02;4.10;;;1.80;;
11837;SDS011;5978;51.020;6.764;2023-07-30T15:07:28;9.33;;;3.10;;
11837;SDS011;5978;51.020;6.764;2023-07-30T15:09:54;5.57;;;1.70;;
11837;SDS011;5978;51.020;6.764;2023-07-30T15:12:19;4.57;;;1.80;;